Time;durP1;ratioP1;P1;durP2;ratioP2;P2;SDS_P1;SDS_P2;PMS_P1;PMS_P2;Temp;Humidity;BMP_temperature;BMP_pressure;BME280_temperature;BME280_humidity;BME280_pressure;Samples;Min_cycle;Max_cycle;Signal;HPM_P1;HPM_P2
2023/05/03 00:01:00;;;;;;;5.75;3.35;;;;;;;10.37;30.84;102393.94;4995739;28;20046;-84
2023/05/03 00:03:28;;;;;;;5.97;3.38;;;;;;;10.34;30.86;102384.06;4991511;28;20060;-84
2023/05/03 00:05:57;;;;;;;5.72;3.25;;;;;;;10.31;30.75;102387.00;4984569;28;20073;-84
2023/05/03 00:08:25;;;;;;;6.10;3.45;;;;;;;10.30;30.82;102385.25;4985307;28;20137;-85
2023/05/03 00:11:00;;;;;;;5.95;3.50;;;;;;;10.31;31.08;102383.38;4989774;28;20137;-84
2023/05/03 00:13:29;;;;;;;7.10;3.63;;;;;;;10.26;31.01;102375.44;4988217;28;20047;-85
2023/05/03 00:15:57;;;;;;;5.75;3.70;;;;;;;10.26;30.83;102377.31;4979368;28;20042;-84
2023/05/03 00:18:25;;;;;;;5.55;3.33;;;;;;;10.26;30.83;102380.03;4991761;28;20062;-84
2023/05/03 00:20:54;;;;;;;4.85;3.25;;;;;;;10.23;31.27;102372.94;4976904;28;20490;-84
2023/05/03 00:23:22;;;;;;;5.55;3.33;;;;;;;10.24;31.16;102381.00;4992830;28;20049;-84
2023/05/03 00:25:52;;;;;;;6.57;3.40;;;;;;;10.27;30.94;102374.47;4972508;28;20042;-85
2023/05/03 00:28:22;;;;;;;5.82;3.40;;;;;;;10.26;31.05;102369.09;4989409;28;20097;-85
2023/05/03 00:30:51;;;;;;;5.70;3.38;;;;;;;10.23;31.16;102378.41;4967115;28;20043;-84
2023/05/03 00:33:19;;;;;;;4.53;3.10;;;;;;;10.23;31.05;102379.25;4991612;28;20058;-85
2023/05/03 00:35:47;;;;;;;4.88;3.10;;;;;;;10.23;30.86;102381.13;4994476;28;20358;-85
2023/05/03 00:38:15;;;;;;;5.95;3.30;;;;;;;10.22;31.21;102382.09;4987804;28;20133;-82
2023/05/03 00:40:43;;;;;;;6.10;3.35;;;;;;;10.22;31.17;102387.56;4988637;28;20046;-83
2023/05/03 00:43:13;;;;;;;6.30;3.80;;;;;;;10.21;31.40;102388.56;4972547;28;20042;-83
2023/05/03 00:45:45;;;;;;;4.65;3.10;;;;;;;10.21;31.40;102383.97;4973457;28;20054;-83
2023/05/03 00:48:13;;;;;;;4.87;2.73;;;;;;;10.16;31.21;102385.19;4991829;28;20050;-82
2023/05/03 00:50:41;;;;;;;5.97;3.35;;;;;;;10.16;31.17;102383.34;4977490;28;20109;-83
2023/05/03 00:53:09;;;;;;;4.45;2.85;;;;;;;10.13;31.30;102386.28;4984868;28;20042;-82
2023/05/03 00:55:37;;;;;;;4.80;3.47;;;;;;;10.12;31.46;102380.91;4989564;28;20046;-85
2023/05/03 00:58:05;;;;;;;6.05;3.30;;;;;;;10.11;31.22;102379.13;4978398;28;20584;-85
2023/05/03 01:00:33;;;;;;;6.22;3.50;;;;;;;10.08;31.55;102388.41;4975022;28;20094;-85
2023/05/03 01:03:03;;;;;;;7.53;3.65;;;;;;;10.06;31.29;102375.81;4957809;28;20532;-85
2023/05/03 01:05:49;;;;;;;6.00;3.45;;;;;;;10.04;31.43;102378.66;5005939;23;20067;-79
2023/05/03 01:08:26;;;;;;;5.00;3.28;;;;;;;10.00;31.50;102374.31;4997461;28;20084;-80
2023/05/03 01:11:01;;;;;;;5.68;3.47;;;;;;;9.98;31.50;102372.69;5008858;28;20157;-79
2023/05/03 01:13:42;;;;;;;5.18;3.10;;;;;;;9.96;31.58;102380.09;5017743;28;20050;-80
2023/05/03 01:16:18;;;;;;;4.85;3.10;;;;;;;9.93;31.74;102375.69;5025644;28;20105;-80
2023/05/03 01:18:52;;;;;;;4.90;2.92;;;;;;;9.91;31.44;102374.00;5006459;28;20505;-79
2023/05/03 01:21:22;;;;;;;5.13;3.00;;;;;;;9.89;31.53;102376.84;5012391;28;20066;-80
2023/05/03 01:23:56;;;;;;;5.72;3.20;;;;;;;9.88;31.70;102379.66;5012084;28;20042;-80
2023/05/03 01:26:27;;;;;;;6.03;3.15;;;;;;;9.85;31.69;102380.72;5011585;28;20053;-79
2023/05/03 01:28:56;;;;;;;5.38;2.97;;;;;;;9.79;31.76;102382.00;5006087;28;20046;-80
2023/05/03 01:31:31;;;;;;;5.82;3.67;;;;;;;9.82;32.09;102375.47;5007895;28;20046;-79
2023/05/03 01:34:11;;;;;;;6.82;3.55;;;;;;;9.80;31.83;102378.28;5002150;28;20041;-79
2023/05/03 01:36:43;;;;;;;5.13;3.20;;;;;;;9.77;31.81;102381.19;5003686;28;20054;-79
2023/05/03 01:39:18;;;;;;;5.00;3.17;;;;;;;9.76;31.70;102384.00;5005048;28;20101;-79
2023/05/03 01:41:50;;;;;;;6.00;3.53;;;;;;;9.75;31.97;102387.72;5021961;28;20061;-80
2023/05/03 01:44:20;;;;;;;5.97;3.13;;;;;;;9.70;31.84;102388.00;5033374;28;20056;-79
2023/05/03 01:46:48;;;;;;;4.80;3.28;;;;;;;9.67;31.94;102388.19;5025721;28;20056;-79
2023/05/03 01:49:16;;;;;;;5.35;3.00;;;;;;;9.65;31.97;102394.72;5002665;28;20046;-79
2023/05/03 01:51:44;;;;;;;5.20;3.03;;;;;;;9.62;31.94;102390.31;5011520;28;20041;-79
2023/05/03 01:54:12;;;;;;;5.25;3.20;;;;;;;9.59;31.96;102393.22;5002326;28;20046;-79
2023/05/03 01:56:40;;;;;;;5.47;3.13;;;;;;;9.56;32.12;102393.44;5013828;28;20101;-79
2023/05/03 01:59:09;;;;;;;4.03;2.83;;;;;;;9.55;31.83;102402.59;5007016;28;20038;-80
2023/05/03 02:01:37;;;;;;;4.63;2.70;;;;;;;9.51;32.12;102391.91;5000484;28;20050;-79
2023/05/03 02:04:07;;;;;;;4.88;2.90;;;;;;;9.48;32.03;102403.94;5002731;28;20077;-80
2023/05/03 02:06:36;;;;;;;5.57;3.00;;;;;;;9.46;31.91;102397.66;5010418;28;20062;-79
2023/05/03 02:09:04;;;;;;;3.88;2.70;;;;;;;9.44;32.26;102396.84;5007763;28;20046;-80
2023/05/03 02:11:31;;;;;;;5.03;2.80;;;;;;;9.41;32.24;102399.78;5016551;28;20057;-79
2023/05/03 02:13:59;;;;;;;5.25;2.97;;;;;;;9.39;32.06;102399.00;5003970;28;20050;-79
2023/05/03 02:16:28;;;;;;;4.53;2.80;;;;;;;9.39;32.35;102399.00;5019844;28;20057;-79
2023/05/03 02:18:58;;;;;;;5.72;3.10;;;;;;;9.35;32.25;102408.28;5013777;28;20362;-79
2023/05/03 02:21:26;;;;;;;5.40;2.90;;;;;;;9.32;32.28;102412.09;4999505;28;20525;-79
2023/05/03 02:23:54;;;;;;;6.28;2.97;;;;;;;9.31;32.00;102404.00;5009679;28;20042;-79
2023/05/03 02:26:22;;;;;;;5.85;3.20;;;;;;;9.29;32.31;102408.66;5009769;28;20080;-80
2023/05/03 02:28:50;;;;;;;4.70;3.05;;;;;;;9.28;32.30;102417.81;4999058;28;20057;-79
2023/05/03 02:31:18;;;;;;;5.10;3.17;;;;;;;9.25;32.44;102409.78;4995593;28;20051;-80
2023/05/03 02:33:47;;;;;;;5.50;3.03;;;;;;;9.25;32.65;102420.72;5017111;28;20046;-79
2023/05/03 02:36:16;;;;;;;5.55;2.95;;;;;;;9.21;32.59;102427.34;5011528;28;20069;-80
2023/05/03 02:38:44;;;;;;;5.53;3.20;;;;;;;9.19;32.46;102421.94;4998565;28;20685;-80
2023/05/03 02:41:13;;;;;;;8.07;3.30;;;;;;;9.17;32.35;102423.00;5013126;28;20080;-80
2023/05/03 02:43:41;;;;;;;5.13;3.22;;;;;;;9.15;32.45;102425.84;5013719;28;20049;-80
2023/05/03 02:46:09;;;;;;;5.35;3.17;;;;;;;9.14;32.46;102429.53;5017011;28;20058;-79
2023/05/03 02:48:37;;;;;;;4.88;2.75;;;;;;;9.12;32.77;102422.38;5025917;28;20099;-79
2023/05/03 02:51:06;;;;;;;6.15;3.42;;;;;;;9.12;32.70;102422.38;5011924;28;20061;-80
2023/05/03 02:53:34;;;;;;;5.38;3.53;;;;;;;9.07;32.80;102419.94;5013806;28;20090;-80
2023/05/03 02:56:03;;;;;;;5.43;3.22;;;;;;;9.05;32.82;102419.13;5012311;28;20033;-80
2023/05/03 02:58:31;;;;;;;7.13;4.82;;;;;;;9.03;32.79;102418.34;5014969;28;20119;-79
2023/05/03 03:01:01;;;;;;;6.63;3.78;;;;;;;8.98;33.17;102413.16;4996144;28;20054;-79
2023/05/03 03:03:30;;;;;;;6.30;3.47;;;;;;;8.95;32.79;102409.69;4990259;28;20046;-79
2023/05/03 03:05:58;;;;;;;4.28;2.88;;;;;;;8.94;32.86;102416.13;4992943;28;20137;-79
2023/05/03 03:08:29;;;;;;;5.38;3.10;;;;;;;8.92;32.95;102407.13;5009362;28;20127;-79
2023/05/03 03:11:00;;;;;;;;;;;;;;;8.63;33.47;102411.47;5008220;28;20038;-79
2023/05/03 03:13:28;;;;;;;6.30;3.30;;;;;;;8.81;32.87;102396.81;5009782;28;19969;-79
2023/05/03 03:15:56;;;;;;;5.97;3.30;;;;;;;8.82;33.05;102400.44;4993701;28;20048;-79
2023/05/03 03:18:24;;;;;;;4.97;3.22;;;;;;;8.80;33.06;102400.50;4999406;28;20524;-79
2023/05/03 03:20:52;;;;;;;6.38;3.75;;;;;;;8.77;33.06;102388.88;4988676;28;20505;-79
2023/05/03 03:23:21;;;;;;;6.45;4.53;;;;;;;8.71;33.08;102387.38;4998196;28;20124;-80
2023/05/03 03:25:51;;;;;;;5.50;3.13;;;;;;;8.71;33.15;102384.66;5002158;28;20061;-80
2023/05/03 03:28:19;;;;;;;5.10;3.00;;;;;;;8.64;33.41;102375.94;4997044;28;20038;-80
2023/05/03 03:30:47;;;;;;;6.60;3.95;;;;;;;8.63;33.08;102376.88;5014472;28;20050;-80
2023/05/03 03:33:24;;;;;;;5.07;3.50;;;;;;;8.57;33.27;102377.22;4999837;28;20042;-81
2023/05/03 03:35:56;;;;;;;4.68;3.50;;;;;;;8.54;33.35;102377.38;5012068;28;20184;-79
2023/05/03 03:38:28;;;;;;;6.32;4.00;;;;;;;8.48;33.61;102366.81;5016124;28;20045;-80
2023/05/03 03:41:03;;;;;;;5.60;3.50;;;;;;;8.49;33.87;102378.63;4998034;28;20041;-81
2023/05/03 03:43:31;;;;;;;7.10;3.90;;;;;;;8.43;33.62;102373.47;5003348;28;20053;-80
2023/05/03 03:46:00;;;;;;;6.15;3.58;;;;;;;8.40;33.59;102377.28;5014626;28;20128;-80
2023/05/03 03:48:28;;;;;;;6.65;3.72;;;;;;;8.36;33.79;102372.94;5012667;28;20056;-80
2023/05/03 03:50:56;;;;;;;5.78;3.45;;;;;;;8.33;33.63;102368.56;5014027;28;20115;-80
2023/05/03 03:53:31;;;;;;;6.45;3.90;;;;;;;8.31;33.69;102367.75;5006731;28;20050;-80
2023/05/03 03:55:59;;;;;;;6.18;3.65;;;;;;;8.28;33.65;102367.91;4994055;28;20050;-80
2023/05/03 03:58:30;;;;;;;5.80;3.53;;;;;;;8.28;33.79;102365.16;4996748;28;20042;-79
2023/05/03 04:00:59;;;;;;;7.15;3.90;;;;;;;8.25;33.95;102365.34;5001453;28;20058;-79
2023/05/03 04:03:28;;;;;;;6.30;3.72;;;;;;;8.24;33.88;102363.59;5010139;28;20035;-79
2023/05/03 04:05:57;;;;;;;7.97;4.13;;;;;;;8.22;34.09;102349.16;5004206;28;20402;-79
2023/05/03 04:08:27;;;;;;;6.32;4.13;;;;;;;8.20;33.92;102356.53;5009556;28;20129;-79
2023/05/03 04:10:54;;;;;;;6.50;4.03;;;;;;;8.19;33.79;102341.13;5010287;28;20239;-80
2023/05/03 04:13:22;;;;;;;7.35;4.68;;;;;;;8.17;34.02;102342.19;5001298;28;20030;-80
2023/05/03 04:15:56;;;;;;;6.28;4.32;;;;;;;8.18;34.16;102339.34;4997817;28;20070;-80
2023/05/03 04:18:25;;;;;;;7.68;4.35;;;;;;;8.11;33.93;102337.88;5008536;28;20060;-80
2023/05/03 04:20:55;;;;;;;8.00;4.93;;;;;;;8.12;34.05;102342.38;5000002;28;20573;-81
2023/05/03 04:23:24;;;;;;;6.88;4.32;;;;;;;8.12;33.86;102347.84;4998345;28;20049;-80
2023/05/03 04:25:52;;;;;;;8.70;4.68;;;;;;;8.09;34.04;102350.75;4998082;28;21574;-80
2023/05/03 04:28:21;;;;;;;7.13;4.75;;;;;;;8.08;34.07;102351.72;4998929;28;20045;-80
2023/05/03 04:30:57;;;;;;;8.85;4.32;;;;;;;8.07;34.06;102363.56;5017447;28;20096;-81
2023/05/03 04:33:28;;;;;;;8.45;4.70;;;;;;;8.06;34.00;102363.66;5012632;28;20197;-82
2023/05/03 04:36:01;;;;;;;6.88;4.00;;;;;;;8.06;34.17;102374.56;5013478;28;20034;-80
2023/05/03 04:38:29;;;;;;;6.60;4.13;;;;;;;8.07;34.23;102381.78;5011412;28;20133;-81
2023/05/03 04:40:59;;;;;;;6.88;4.55;;;;;;;8.07;34.17;102382.66;5023820;28;20042;-80
2023/05/03 04:43:28;;;;;;;6.60;4.50;;;;;;;8.08;34.40;102391.72;5003437;28;20132;-80
2023/05/03 04:45:58;;;;;;;8.02;4.50;;;;;;;8.10;34.26;102392.50;5014397;28;20518;-79
2023/05/03 04:48:27;;;;;;;7.22;4.80;;;;;;;8.10;34.39;102389.78;5019619;28;20053;-79
2023/05/03 04:50:57;;;;;;;6.63;4.07;;;;;;;8.10;34.42;102387.94;5011337;28;20057;-79
2023/05/03 04:53:26;;;;;;;9.57;5.10;;;;;;;8.12;34.72;102385.13;5002906;28;20069;-79
2023/05/03 04:56:02;;;;;;;6.30;4.30;;;;;;;8.11;34.39;102384.25;5013670;28;20049;-79
2023/05/03 04:58:33;;;;;;;7.50;4.78;;;;;;;8.12;34.48;102385.13;5002509;28;20034;-79
2023/05/03 05:01:03;;;;;;;8.43;4.90;;;;;;;8.13;34.47;102387.81;4994328;28;20050;-79
2023/05/03 05:03:31;;;;;;;9.38;5.30;;;;;;;8.13;34.52;102396.00;5010737;28;20129;-79
2023/05/03 05:06:06;;;;;;;7.25;4.50;;;;;;;8.13;34.72;102398.72;5001296;28;20132;-80
2023/05/03 05:08:35;;;;;;;8.85;4.60;;;;;;;8.17;34.35;102396.72;5019021;28;20149;-79
2023/05/03 05:11:06;;;;;;;7.95;4.47;;;;;;;8.19;34.72;102398.38;5015811;28;20046;-79
2023/05/03 05:13:41;;;;;;;7.45;4.68;;;;;;;8.20;34.46;102397.44;5000141;28;20057;-79
2023/05/03 05:16:10;;;;;;;6.47;4.30;;;;;;;8.25;34.80;102402.66;5002814;28;20064;-80
2023/05/03 05:18:42;;;;;;;;;;;;;;;8.01;35.48;102407.53;5021647;28;20037;-80
2023/05/03 05:21:13;;;;;;;7.03;4.50;;;;;;;8.26;35.01;102401.66;5017743;28;20019;-80
2023/05/03 05:23:42;;;;;;;9.18;4.50;;;;;;;8.35;35.11;102414.81;4993422;28;20775;-80
2023/05/03 05:26:11;;;;;;;7.43;4.43;;;;;;;8.43;35.25;102408.94;5009829;28;20533;-81
2023/05/03 05:28:39;;;;;;;8.73;4.85;;;;;;;8.50;35.19;102421.31;5003591;28;20104;-82
2023/05/03 05:31:06;;;;;;;7.97;5.10;;;;;;;8.57;35.42;102423.63;5020426;28;20064;-80
2023/05/03 05:33:36;;;;;;;9.73;4.65;;;;;;;8.69;35.30;102425.66;5011611;28;20049;-80
2023/05/03 05:36:06;;;;;;;7.32;4.50;;;;;;;8.80;35.11;102430.53;5005144;28;20070;-80
2023/05/03 05:38:35;;;;;;;6.75;4.60;;;;;;;8.90;35.19;102429.06;4993905;28;20042;-79
2023/05/03 05:41:06;;;;;;;10.30;5.47;;;;;;;9.04;35.34;102422.81;4997798;28;20034;-79
2023/05/03 05:43:34;;;;;;;6.93;4.72;;;;;;;9.13;35.13;102429.63;5013644;28;20134;-80
2023/05/03 05:46:03;;;;;;;8.35;5.05;;;;;;;9.26;35.22;102430.66;5013516;28;20456;-80
2023/05/03 05:48:31;;;;;;;8.32;5.03;;;;;;;9.38;35.26;102433.63;5002712;28;20041;-80
2023/05/03 05:51:01;;;;;;;6.55;4.93;;;;;;;9.52;34.94;102430.09;4987488;28;20104;-80
2023/05/03 05:53:29;;;;;;;8.73;4.90;;;;;;;9.61;34.94;102428.66;4995727;28;20050;-80
2023/05/03 05:56:00;;;;;;;8.43;4.47;;;;;;;9.73;34.68;102427.97;5000864;28;20041;-80
2023/05/03 05:58:31;;;;;;;7.80;4.35;;;;;;;9.82;34.37;102435.63;5024841;28;20029;-80
2023/05/03 06:01:00;;;;;;;7.10;4.15;;;;;;;9.93;34.19;102441.31;5019921;28;20145;-80
2023/05/03 06:03:30;;;;;;;7.63;4.50;;;;;;;10.00;34.26;102439.09;4995708;28;20046;-80
2023/05/03 06:05:59;;;;;;;6.47;4.53;;;;;;;10.08;34.34;102442.22;5016976;28;20048;-80
2023/05/03 06:08:29;;;;;;;7.40;4.32;;;;;;;10.15;33.88;102447.25;4999214;28;20464;-81
2023/05/03 06:10:57;;;;;;;7.05;4.00;;;;;;;10.20;33.99;102445.13;5009455;28;20042;-80
2023/05/03 06:13:26;;;;;;;7.15;4.18;;;;;;;10.28;33.89;102447.38;4999237;28;20053;-80
2023/05/03 06:15:55;;;;;;;6.97;4.45;;;;;;;10.37;34.08;102445.94;5016456;28;20050;-80
2023/05/03 06:18:24;;;;;;;6.38;4.00;;;;;;;10.45;33.66;102440.88;4999087;28;20042;-81
2023/05/03 06:20:52;;;;;;;7.50;3.88;;;;;;;10.56;33.84;102446.59;5017833;28;20050;-80
2023/05/03 06:23:20;;;;;;;6.38;3.70;;;;;;;10.67;33.34;102446.78;5005859;28;20137;-81
2023/05/03 06:25:51;;;;;;;6.15;3.72;;;;;;;10.78;33.13;102452.50;5013347;28;20477;-81
2023/05/03 06:28:19;;;;;;;6.05;4.20;;;;;;;10.87;33.58;102451.03;4997041;28;20038;-80
2023/05/03 06:30:51;;;;;;;5.88;3.67;;;;;;;11.03;32.92;102460.03;5007852;28;20061;-80
2023/05/03 06:33:19;;;;;;;6.38;4.35;;;;;;;11.11;33.09;102445.81;4998391;28;20053;-81
2023/05/03 06:35:50;;;;;;;4.75;3.35;;;;;;;11.24;32.83;102446.78;4994629;28;20038;-80
2023/05/03 06:38:20;;;;;;;5.68;3.47;;;;;;;11.41;33.34;102451.16;4998838;28;20109;-80
2023/05/03 06:40:49;;;;;;;6.15;3.63;;;;;;;11.56;32.90;102453.75;4992242;28;20128;-80
2023/05/03 06:43:19;;;;;;;5.32;3.33;;;;;;;11.71;33.02;102441.81;5017316;28;20408;-80
2023/05/03 06:45:56;;;;;;;6.05;3.70;;;;;;;11.86;32.93;102447.25;5010514;28;20058;-80
2023/05/03 06:48:24;;;;;;;4.80;3.30;;;;;;;12.01;32.69;102447.06;5002262;28;20699;-80
2023/05/03 06:50:52;;;;;;;5.65;3.40;;;;;;;12.17;31.93;102446.00;5006470;28;20038;-79
2023/05/03 06:53:20;;;;;;;4.53;3.15;;;;;;;12.28;31.92;102440.66;5013843;28;20053;-79
2023/05/03 06:55:48;;;;;;;5.57;3.60;;;;;;;12.39;31.45;102441.66;5000710;28;20773;-81
2023/05/03 06:58:17;;;;;;;5.30;3.55;;;;;;;12.46;30.97;102437.47;4998541;28;20050;-81
2023/05/03 07:00:45;;;;;;;5.95;3.67;;;;;;;12.55;31.16;102446.03;5000177;28;20042;-81
2023/05/03 07:03:13;;;;;;;7.32;3.97;;;;;;;12.61;31.16;102443.78;4999281;28;20533;-81
2023/05/03 07:05:41;;;;;;;6.75;3.45;;;;;;;12.66;30.55;102446.22;5014322;28;20049;-81
2023/05/03 07:08:13;;;;;;;5.50;3.25;;;;;;;12.74;31.05;102447.41;5040372;23;20058;-85
2023/05/03 07:28:06;;;;;;;4.85;2.65;;;;;;;13.23;30.52;102441.97;4859653;29;20056;-85
2023/05/03 07:30:35;;;;;;;5.95;3.10;;;;;;;13.36;30.10;102435.59;4868199;29;20044;-85
2023/05/03 07:33:03;;;;;;;4.88;2.83;;;;;;;13.44;29.96;102434.03;4929174;29;20106;-84
2023/05/03 07:35:34;;;;;;;3.92;2.05;;;;;;;13.59;30.03;102429.25;4947951;29;20059;-85
2023/05/03 07:38:42;;;;;;;4.60;3.15;;;;;;;13.62;28.63;102426.25;4947019;29;20057;-87
2023/05/03 07:41:10;;;;;;;4.57;2.60;;;;;;;13.76;29.66;102422.47;4937807;28;20529;-84
2023/05/03 07:43:45;;;;;;;4.82;2.72;;;;;;;13.85;28.03;102417.16;4959348;28;20039;-84
2023/05/03 07:46:14;;;;;;;5.93;3.20;;;;;;;13.85;29.11;102413.53;4970563;28;20431;-83
2023/05/03 07:48:42;;;;;;;5.50;2.90;;;;;;;13.98;28.76;102411.56;4941693;29;20039;-85
2023/05/03 07:51:11;;;;;;;4.32;2.47;;;;;;;14.07;28.68;102412.72;4945548;28;20054;-85
2023/05/03 07:53:43;;;;;;;4.97;2.90;;;;;;;14.10;28.59;102409.75;4950352;29;20075;-84
2023/05/03 07:56:11;;;;;;;4.50;2.90;;;;;;;14.13;28.15;102390.22;4948007;28;20072;-85
2023/05/03 07:58:39;;;;;;;4.68;2.88;;;;;;;14.18;28.15;102399.88;4952037;29;20051;-84
2023/05/03 08:01:10;;;;;;;4.82;2.85;;;;;;;14.24;27.61;102395.75;4947691;29;20051;-85
2023/05/03 08:16:34;;;;;;;4.20;2.25;;;;;;;14.33;27.07;102401.41;4919864;28;20058;-84
2023/05/03 08:19:46;;;;;;;3.75;2.28;;;;;;;14.42;27.68;102404.44;4946505;28;20630;-85
2023/05/03 08:22:53;;;;;;;4.85;2.58;;;;;;;14.52;27.76;102406.34;4924636;28;20047;-83
2023/05/03 08:25:21;;;;;;;3.45;2.38;;;;;;;14.61;28.01;102408.38;4945052;29;20129;-85
2023/05/03 08:27:57;;;;;;;4.60;2.58;;;;;;;14.67;27.77;102398.75;4941853;29;20075;-84
2023/05/03 08:31:10;;;;;;;3.63;2.17;;;;;;;14.77;27.04;102399.75;4959126;28;20087;-86
2023/05/03 08:37:29;;;;;;;4.30;2.83;;;;;;;14.93;26.66;102400.25;4949027;28;20047;-83
2023/05/03 08:40:09;;;;;;;4.00;2.30;;;;;;;15.01;27.40;102394.13;4939030;29;20047;-83
2023/05/03 08:42:42;;;;;;;3.92;2.22;;;;;;;15.11;27.72;102384.06;4952817;28;20070;-83
2023/05/03 08:45:11;;;;;;;;;;;;;;;14.87;27.03;102378.69;4972441;28;20035;-82
2023/05/03 08:47:40;;;;;;;4.13;2.67;;;;;;;15.18;27.02;102388.06;4944331;28;19926;-83
2023/05/03 08:50:10;;;;;;;5.25;2.80;;;;;;;15.31;26.75;102387.94;4944774;29;20082;-84
2023/05/03 08:52:41;;;;;;;3.70;2.17;;;;;;;15.40;27.13;102387.19;4938777;28;20051;-82
2023/05/03 08:55:10;;;;;;;3.80;2.50;;;;;;;15.46;26.99;102394.97;4942833;29;20043;-85
2023/05/03 08:57:39;;;;;;;4.32;2.45;;;;;;;15.52;27.06;102389.78;4975365;28;20066;-84
2023/05/03 09:00:10;;;;;;;3.88;2.35;;;;;;;15.58;26.53;102385.66;4938138;29;20043;-83
2023/05/03 09:02:40;;;;;;;4.43;2.53;;;;;;;15.64;26.56;102387.00;4936820;28;20107;-85
2023/05/03 09:05:34;;;;;;;4.57;2.80;;;;;;;15.70;25.82;102392.88;4936537;29;20043;-82
2023/05/03 09:08:05;;;;;;;3.63;2.30;;;;;;;15.75;26.19;102390.63;4970368;28;20111;-84
2023/05/03 09:10:36;;;;;;;3.67;2.50;;;;;;;15.78;26.17;102384.81;4937518;29;20039;-83
2023/05/03 09:13:05;;;;;;;3.90;2.45;;;;;;;15.80;25.93;102384.69;4939225;29;20526;-84
2023/05/03 09:15:34;;;;;;;4.28;2.92;;;;;;;15.81;26.05;102376.28;4940516;29;20043;-81
2023/05/03 09:18:14;;;;;;;4.35;2.83;;;;;;;15.87;25.02;102378.50;4973477;28;20055;-83
2023/05/03 09:20:50;;;;;;;3.75;2.28;;;;;;;15.89;25.71;102375.63;4987988;28;20054;-84
2023/05/03 09:23:29;;;;;;;3.97;2.70;;;;;;;15.91;26.07;102369.97;4967104;28;20078;-85
2023/05/03 09:25:59;;;;;;;4.30;2.72;;;;;;;15.94;25.88;102373.31;4975409;28;20081;-81
2023/05/03 09:28:27;;;;;;;5.22;2.70;;;;;;;15.96;25.63;102365.78;4954249;28;20039;-84
2023/05/03 09:31:05;;;;;;;4.88;3.13;;;;;;;16.00;24.32;102369.19;4973524;28;20074;-84
2023/05/03 09:33:33;;;;;;;5.22;2.50;;;;;;;16.03;25.70;102361.47;4963160;28;20042;-83
2023/05/03 09:36:03;;;;;;;4.45;2.65;;;;;;;16.06;25.17;102361.22;4959042;28;20078;-82
2023/05/03 09:38:35;;;;;;;4.43;2.78;;;;;;;16.10;24.99;102361.81;4958896;28;20375;-83
2023/05/03 09:41:04;;;;;;;4.73;3.00;;;;;;;16.06;24.90;102360.34;4962599;28;20046;-85
2023/05/03 09:43:33;;;;;;;4.45;2.78;;;;;;;16.10;24.99;102361.81;4956085;28;20301;-85
2023/05/03 09:46:09;;;;;;;3.90;2.50;;;;;;;16.11;24.05;102356.16;4956095;28;20047;-85
2023/05/03 09:48:38;;;;;;;4.63;2.67;;;;;;;16.08;24.98;102350.06;4989120;28;20110;-85
2023/05/03 09:51:06;;;;;;;5.35;2.60;;;;;;;16.06;24.54;102352.94;4956897;28;20077;-85
2023/05/03 09:53:37;;;;;;;3.70;2.45;;;;;;;16.07;24.62;102353.81;4988137;28;20050;-82
2023/05/03 09:56:11;;;;;;;3.83;2.55;;;;;;;16.04;24.96;102348.56;4984188;28;20132;-84
2023/05/03 09:58:40;;;;;;;4.55;2.97;;;;;;;15.97;24.81;102345.44;4952912;29;20053;-84
2023/05/03 10:01:08;;;;;;;5.45;3.00;;;;;;;15.95;24.54;102341.94;4988395;28;20051;-84
2023/05/03 10:03:40;;;;;;;4.10;2.72;;;;;;;15.96;24.65;102340.06;4960581;28;20047;-82
2023/05/03 10:06:19;;;;;;;5.75;2.70;;;;;;;15.95;24.23;102325.38;4959143;28;20042;-84
2023/05/03 10:08:53;;;;;;;4.00;2.40;;;;;;;15.97;24.52;102328.88;4992301;28;20070;-85
2023/05/03 10:11:26;;;;;;;4.68;2.63;;;;;;;15.99;24.77;102326.00;4991729;28;20059;-85
2023/05/03 10:13:54;;;;;;;3.70;2.22;;;;;;;15.95;25.03;102314.34;4953842;29;20113;-85
2023/05/03 10:16:28;;;;;;;5.38;3.17;;;;;;;15.94;23.83;102309.81;4959651;28;20051;-85
2023/05/03 10:19:06;;;;;;;4.00;2.67;;;;;;;16.02;24.26;102320.19;4994548;28;20051;-85
2023/05/03 10:21:51;;;;;;;4.90;2.85;;;;;;;16.07;24.23;102312.38;4961073;28;20051;-85
2023/05/03 10:24:21;;;;;;;4.28;2.70;;;;;;;16.07;24.55;102309.63;4994594;28;20050;-83
2023/05/03 10:26:52;;;;;;;4.55;2.30;;;;;;;16.13;24.36;102307.19;4960299;28;20047;-82
2023/05/03 10:29:47;;;;;;;3.65;2.35;;;;;;;16.09;24.23;102302.06;4962275;28;20050;-83
2023/05/03 10:32:30;;;;;;;6.03;3.22;;;;;;;16.08;23.52;102297.56;4954287;28;20047;-83
2023/05/03 10:35:00;;;;;;;4.72;3.13;;;;;;;16.14;24.70;102299.78;4956862;29;20043;-85
2023/05/03 10:37:32;;;;;;;5.30;3.63;;;;;;;16.11;24.43;102302.81;4979856;28;20043;-85
2023/05/03 10:40:11;;;;;;;4.10;2.75;;;;;;;16.21;24.19;102289.97;4956140;28;20051;-85
2023/05/03 10:42:40;;;;;;;4.28;2.33;;;;;;;16.24;24.44;102303.53;4948967;28;20319;-85
2023/05/03 10:45:11;;;;;;;4.45;2.88;;;;;;;16.25;24.58;102297.84;4954703;28;20049;-84
2023/05/03 10:47:40;;;;;;;5.07;3.03;;;;;;;16.29;24.78;102300.34;4961286;28;20059;-84
2023/05/03 10:50:27;;;;;;;4.53;2.80;;;;;;;16.36;23.98;102307.94;4961203;28;20043;-85
2023/05/03 10:52:55;;;;;;;5.25;2.83;;;;;;;16.38;25.02;102305.91;4959837;28;20059;-85
2023/05/03 10:55:24;;;;;;;5.47;2.95;;;;;;;16.47;24.93;102301.47;4958948;28;20035;-82
2023/05/03 10:57:57;;;;;;;4.93;3.00;;;;;;;16.52;24.50;102293.63;4950853;28;20572;-83
2023/05/03 11:00:39;;;;;;;4.13;2.92;;;;;;;16.50;22.68;102303.91;4958779;28;20486;-85
2023/05/03 11:03:20;;;;;;;4.85;3.17;;;;;;;16.57;23.92;102303.25;4958430;28;20043;-84
2023/05/03 11:05:48;;;;;;;5.07;3.20;;;;;;;16.62;24.54;102291.78;4957940;28;20149;-84
2023/05/03 11:08:19;;;;;;;5.18;2.63;;;;;;;16.70;24.75;102291.94;4955489;28;20149;-85
2023/05/03 11:10:56;;;;;;;;;;;;;;;16.46;24.87;102284.00;4948199;28;20415;-83
2023/05/03 11:13:24;;;;;;;4.88;3.30;;;;;;;16.72;24.98;102281.63;4972679;28;19930;-85
2023/05/03 11:15:53;;;;;;;5.28;2.90;;;;;;;16.85;24.10;102278.59;4960150;28;20055;-85
2023/05/03 11:18:21;;;;;;;5.13;2.80;;;;;;;16.91;24.25;102276.13;4961522;28;20058;-85
2023/05/03 11:20:49;;;;;;;5.05;3.40;;;;;;;16.92;24.30;102277.91;4959781;28;20050;-85
2023/05/03 11:23:18;;;;;;;5.75;3.60;;;;;;;16.96;24.42;102271.09;4974215;28;20043;-84
2023/05/03 11:25:46;;;;;;;4.60;2.70;;;;;;;17.04;24.09;102269.53;4959988;28;20067;-85
2023/05/03 11:28:16;;;;;;;5.15;3.60;;;;;;;17.04;23.51;102269.53;4961632;28;20299;-86
2023/05/03 11:30:46;;;;;;;5.13;3.92;;;;;;;17.07;23.41;102260.94;4955299;28;20502;-85
2023/05/03 11:33:14;;;;;;;5.82;3.22;;;;;;;17.11;24.18;102254.97;4962884;28;20046;-84
2023/05/03 11:35:42;;;;;;;5.05;3.00;;;;;;;17.13;24.18;102250.19;4960710;28;20083;-85
2023/05/03 11:38:10;;;;;;;4.80;2.60;;;;;;;17.17;24.44;102262.69;4957093;28;20043;-85
2023/05/03 11:40:39;;;;;;;7.22;3.90;;;;;;;17.19;24.45;102257.91;4961591;28;20047;-84
2023/05/03 11:43:07;;;;;;;5.40;2.97;;;;;;;17.25;24.47;102249.00;4961544;28;20038;-84
2023/05/03 11:45:42;;;;;;;5.53;3.00;;;;;;;17.31;23.64;102253.13;4957645;28;20568;-84
2023/05/03 11:48:12;;;;;;;3.95;2.83;;;;;;;17.35;24.08;102252.66;4966423;28;20051;-86
2023/05/03 11:50:46;;;;;;;5.13;3.42;;;;;;;17.35;23.43;102254.56;4955402;28;20053;-85
2023/05/03 11:53:15;;;;;;;5.90;3.47;;;;;;;17.36;23.92;102246.13;4968137;28;20042;-84
2023/05/03 11:55:46;;;;;;;6.18;3.13;;;;;;;17.39;23.62;102245.84;4957102;28;20047;-85
2023/05/03 11:58:16;;;;;;;6.65;3.30;;;;;;;17.42;24.21;102241.88;4958918;28;20057;-84
2023/05/03 12:00:46;;;;;;;6.15;3.40;;;;;;;17.44;23.50;102238.97;4957414;28;20055;-82
2023/05/03 12:03:18;;;;;;;5.45;3.22;;;;;;;17.49;23.50;102247.69;4959437;28;20129;-82
2023/05/03 12:05:47;;;;;;;;;;;;;;;17.17;23.72;102253.50;4950080;28;20164;-82
2023/05/03 12:08:18;;;;;;;4.32;2.92;;;;;;;17.47;24.22;102241.47;4957536;28;19984;-84
2023/05/03 12:10:49;;;;;;;4.10;2.85;;;;;;;17.53;24.21;102233.44;4973557;28;20042;-84
2023/05/03 12:13:27;;;;;;;;;;;;;;;17.28;24.87;102239.56;4959040;28;20047;-84
2023/05/03 12:15:59;;;;;;;4.47;2.53;;;;;;;17.61;24.41;102241.00;4977550;28;19950;-85
2023/05/03 12:18:50;;;;;;;5.63;3.15;;;;;;;17.69;23.94;102235.59;4969618;28;20058;-85
2023/05/03 12:21:21;;;;;;;6.72;3.58;;;;;;;17.73;23.72;102240.69;4988081;28;20583;-83